Time;durP1;ratioP1;P1;durP2;ratioP2;P2;SDS_P1;SDS_P2;PMS_P1;PMS_P2;Temp;Humidity;BMP_temperature;BMP_pressure;BME280_temperature;BME280_humidity;BME280_pressure;Samples;Min_cycle;Max_cycle;Signal;HPM_P1;HPM_P2
2021/03/21 00:01:56;;;;;;;18.45;7.38;;;;;;;1.35;58.27;99590.13;6087340;23;20005;-68
2021/03/21 00:04:21;;;;;;;16.70;8.30;;;;;;;1.28;57.42;99587.41;6074106;23;20044;-68
2021/03/21 00:06:46;;;;;;;13.15;7.22;;;;;;;1.26;58.31;99578.84;6056645;23;20549;-68
2021/03/21 00:09:13;;;;;;;10.82;6.85;;;;;;;1.29;58.35;99578.91;6079503;23;20009;-68
2021/03/21 00:11:39;;;;;;;15.38;7.00;;;;;;;1.48;57.12;99580.38;6085767;23;20456;-68
2021/03/21 00:14:05;;;;;;;9.07;6.57;;;;;;;1.15;57.47;99580.16;6085362;23;20036;-68
2021/03/21 00:16:31;;;;;;;11.77;6.55;;;;;;;1.13;58.32;99575.84;6075093;23;20010;-68
2021/03/21 00:18:57;;;;;;;12.05;7.40;;;;;;;1.12;58.41;99574.97;6090183;23;20396;-68
2021/03/21 00:21:23;;;;;;;14.30;6.75;;;;;;;1.11;58.43;99578.31;6076830;23;20440;-67
2021/03/21 00:23:49;;;;;;;14.52;6.80;;;;;;;1.21;59.89;99572.72;6095811;23;20032;-67
2021/03/21 00:26:14;;;;;;;10.85;6.43;;;;;;;1.22;59.54;99577.00;6097028;23;20537;-67
2021/03/21 00:28:40;;;;;;;10.18;6.05;;;;;;;1.25;58.30;99568.56;6095141;23;20121;-67
2021/03/21 00:31:08;;;;;;;10.55;6.20;;;;;;;1.34;58.63;99565.44;6070840;23;20345;-67
2021/03/21 00:33:35;;;;;;;8.13;5.90;;;;;;;1.36;59.02;99564.69;6064810;23;20427;-67
2021/03/21 00:36:02;;;;;;;8.20;5.68;;;;;;;1.34;57.95;99573.09;6055614;23;20437;-67
2021/03/21 00:38:30;;;;;;;10.07;6.13;;;;;;;1.41;60.83;99570.78;6048020;23;20429;-67
2021/03/21 00:40:57;;;;;;;12.82;6.22;;;;;;;1.52;63.21;99571.97;6054606;23;20332;-67
2021/03/21 00:43:23;;;;;;;10.98;6.70;;;;;;;1.46;57.52;99563.28;6048331;23;20036;-68
2021/03/21 00:45:49;;;;;;;10.70;6.80;;;;;;;1.41;58.40;99564.81;6054392;23;20005;-67
2021/03/21 00:48:29;;;;;;;14.52;6.80;;;;;;;1.36;58.82;99553.59;6054271;23;20467;-68
2021/03/21 00:50:55;;;;;;;10.50;6.22;;;;;;;1.36;58.89;99553.59;6048580;23;20006;-67
2021/03/21 00:53:21;;;;;;;10.80;6.13;;;;;;;1.35;58.80;99551.84;6041463;23;20005;-67
2021/03/21 00:55:47;;;;;;;10.20;6.15;;;;;;;1.43;58.15;99550.41;6050492;23;20006;-67
2021/03/21 00:58:13;;;;;;;12.45;7.80;;;;;;;1.42;58.89;99553.78;6052421;23;20085;-67
2021/03/21 08:01:51;;;;;;;12.13;4.72;;;;;;;2.80;55.16;99270.28;6133027;23;19926;-68
2021/03/21 08:04:25;;;;;;;10.68;4.40;;;;;;;2.86;55.00;99271.22;6154465;23;20459;-69
2021/03/21 08:07:22;;;;;;;8.27;4.75;;;;;;;2.96;55.94;99268.88;6154762;23;20005;-69
2021/03/21 08:09:48;;;;;;;7.78;4.53;;;;;;;2.95;56.50;99268.84;6145405;23;20015;-69
2021/03/21 08:12:21;;;;;;;9.43;5.07;;;;;;;3.05;54.12;99263.09;6154571;23;20322;-69
2021/03/21 08:14:46;;;;;;;8.95;4.72;;;;;;;3.08;55.50;99268.25;6155308;23;20313;-72
2021/03/21 08:17:34;;;;;;;13.77;6.20;;;;;;;3.17;53.55;99258.19;6154493;23;20036;-72
2021/03/21 08:20:14;;;;;;;13.02;9.15;;;;;;;3.46;55.99;99255.31;6154577;23;20005;-71
2021/03/21 08:22:40;;;;;;;8.30;5.28;;;;;;;3.60;52.78;99248.75;6154465;23;20455;-71
2021/03/21 08:25:19;;;;;;;8.85;5.13;;;;;;;3.73;51.85;99252.38;6154531;23;20005;-71
2021/03/21 08:27:46;;;;;;;14.02;5.50;;;;;;;3.72;52.99;99248.94;6154691;23;20001;-71
2021/03/21 08:30:14;;;;;;;12.27;7.13;;;;;;;3.86;52.51;99242.34;6154346;23;20002;-71
2021/03/21 08:33:00;;;;;;;9.68;6.30;;;;;;;3.67;51.78;99240.31;6154298;23;20005;-71
2021/03/21 08:35:31;;;;;;;7.05;4.70;;;;;;;4.10;51.24;99235.88;6154757;23;20380;-73
2021/03/21 08:38:00;;;;;;;7.97;4.60;;;;;;;4.13;50.19;99233.38;6154392;23;20009;-72
2021/03/21 08:40:34;;;;;;;8.90;4.40;;;;;;;4.22;50.38;99230.94;6154337;23;20001;-71
2021/03/21 08:43:12;;;;;;;7.15;4.57;;;;;;;4.30;52.70;99219.09;6128402;23;20005;-71
2021/03/21 08:45:46;;;;;;;10.23;4.97;;;;;;;4.33;50.70;99219.13;6154379;23;20132;-72
2021/03/21 08:48:12;;;;;;;8.90;5.03;;;;;;;4.33;50.27;99211.44;6154056;23;19998;-72
2021/03/21 08:50:41;;;;;;;6.32;5.00;;;;;;;4.50;50.98;99208.25;6154594;23;20005;-73
2021/03/21 08:53:26;;;;;;;8.00;4.90;;;;;;;4.55;50.83;99204.91;6154134;23;20008;-71
2021/03/21 08:56:08;;;;;;;10.65;4.28;;;;;;;4.94;50.58;99200.22;6154325;23;20005;-73
2021/03/21 08:58:33;;;;;;;7.28;4.25;;;;;;;4.71;49.62;99200.81;6154100;23;20008;-73
2021/03/21 09:01:12;;;;;;;8.50;4.47;;;;;;;4.39;49.54;99198.69;6153945;23;20013;-72
2021/03/21 09:03:38;;;;;;;11.40;4.50;;;;;;;4.39;49.93;99203.81;6154359;23;20005;-72
2021/03/21 09:06:03;;;;;;;7.53;4.40;;;;;;;4.42;51.24;99207.28;6154301;23;20261;-71
2021/03/21 09:08:32;;;;;;;8.00;4.85;;;;;;;4.32;49.82;99207.16;6154222;23;20029;-73
2021/03/21 09:11:01;;;;;;;5.00;3.95;;;;;;;4.39;49.88;99213.22;6154394;23;19998;-72
2021/03/21 09:13:30;;;;;;;14.30;7.25;;;;;;;4.39;51.46;99208.94;6154119;23;20485;-72
2021/03/21 09:16:04;;;;;;;9.20;4.60;;;;;;;4.56;50.51;99221.16;6154547;23;20002;-71
2021/03/21 09:18:38;;;;;;;7.20;5.10;;;;;;;4.36;50.75;99216.63;6153993;23;20005;-71
2021/03/21 09:21:21;;;;;;;6.82;4.72;;;;;;;4.44;51.53;99210.72;6154035;23;20052;-71
2021/03/21 09:24:08;;;;;;;23.35;10.25;;;;;;;4.45;51.44;99222.69;6154203;23;20232;-71
2021/03/21 09:26:43;;;;;;;59.75;28.83;;;;;;;4.36;51.54;99218.31;6154332;23;20009;-71
2021/03/21 09:29:18;;;;;;;8.95;4.93;;;;;;;4.21;50.94;99226.66;6154343;23;20368;-71
2021/03/21 09:31:44;;;;;;;7.57;4.43;;;;;;;4.08;51.06;99223.03;6154039;23;20005;-72
2021/03/21 09:34:18;;;;;;;7.78;3.97;;;;;;;4.20;50.86;99227.47;6154008;23;20006;-71
2021/03/21 09:36:47;;;;;;;9.88;6.15;;;;;;;4.34;52.00;99225.97;6154180;23;20006;-71
2021/03/21 09:39:16;;;;;;;12.07;7.10;;;;;;;4.68;51.93;99226.44;6154027;23;20425;-71
2021/03/21 09:41:42;;;;;;;12.25;7.25;;;;;;;4.80;52.33;99225.75;6154146;23;20002;-71
2021/03/21 09:44:29;;;;;;;14.52;7.53;;;;;;;4.87;50.76;99223.25;6154481;23;20012;-71
2021/03/21 09:47:19;;;;;;;11.57;6.55;;;;;;;5.18;50.31;99225.31;6153483;23;20080;-71
2021/03/21 09:49:50;;;;;;;11.18;6.88;;;;;;;5.00;50.24;99220.84;6149778;23;20639;-71
2021/03/21 09:52:48;;;;;;;11.30;6.90;;;;;;;5.18;52.16;99223.63;6149675;23;20107;-71
2021/03/21 09:55:21;;;;;;;9.45;5.57;;;;;;;5.37;50.67;99216.97;6142368;23;20337;-71
2021/03/21 09:57:52;;;;;;;8.13;4.45;;;;;;;5.34;49.69;99220.34;6149888;23;20511;-72
2021/03/21 10:00:25;;;;;;;5.40;4.32;;;;;;;5.36;49.87;99223.78;6151268;23;20012;-72
2021/03/21 10:03:11;;;;;;;6.85;4.40;;;;;;;5.37;49.74;99220.38;6151466;23;20064;-72
2021/03/21 10:05:55;;;;;;;8.82;4.53;;;;;;;5.31;50.29;99215.16;6150817;23;20440;-72
2021/03/21 10:08:58;;;;;;;7.53;4.63;;;;;;;5.48;49.19;99209.34;6151506;23;20010;-72
2021/03/21 10:11:39;;;;;;;6.25;4.50;;;;;;;5.20;49.25;99211.63;6151436;23;20076;-72
2021/03/21 10:14:23;;;;;;;7.40;5.22;;;;;;;5.13;49.97;99209.84;6151414;23;20006;-72
2021/03/21 10:17:17;;;;;;;8.63;5.38;;;;;;;5.20;49.51;99206.50;6125395;23;20396;-72
2021/03/21 10:19:54;;;;;;;8.23;5.05;;;;;;;5.21;51.47;99217.63;6150436;23;20018;-72
2021/03/21 10:22:26;;;;;;;6.78;5.13;;;;;;;5.45;50.02;99211.88;6150991;23;20642;-72
2021/03/21 10:24:54;;;;;;;7.97;5.45;;;;;;;5.35;50.09;99216.91;6146617;23;20012;-72
2021/03/21 10:27:25;;;;;;;7.75;6.03;;;;;;;5.02;51.94;99226.84;6146155;23;20024;-71
2021/03/21 10:30:13;;;;;;;8.93;5.40;;;;;;;5.01;53.27;99214.84;6146475;23;20015;-72
2021/03/21 10:32:45;;;;;;;9.45;5.85;;;;;;;5.00;54.94;99208.00;6146003;23;20429;-71
2021/03/21 10:35:33;;;;;;;8.68;5.82;;;;;;;5.36;54.52;99197.22;6146529;23;20108;-71
2021/03/21 10:38:05;;;;;;;8.25;5.65;;;;;;;5.51;54.42;99201.66;6126108;23;20018;-71
2021/03/21 10:40:31;;;;;;;10.43;5.40;;;;;;;5.56;55.01;99202.53;6136281;23;20009;-71
2021/03/21 10:43:31;;;;;;;10.63;5.47;;;;;;;5.66;55.26;99202.66;6142247;23;20009;-72
2021/03/21 10:45:56;;;;;;;7.60;5.55;;;;;;;5.38;57.40;99206.69;6137558;23;20033;-72
2021/03/21 10:48:25;;;;;;;9.50;5.53;;;;;;;5.34;57.22;99210.06;6140894;23;20064;-72
2021/03/21 10:51:01;;;;;;;7.72;5.18;;;;;;;5.07;57.49;99214.91;6140566;23;20040;-72
2021/03/21 10:53:32;;;;;;;9.98;5.32;;;;;;;4.80;58.25;99215.47;6140298;23;20009;-72
2021/03/21 10:56:07;;;;;;;9.35;5.55;;;;;;;4.98;58.79;99209.66;6146593;23;20012;-73
2021/03/21 10:58:35;;;;;;;9.35;6.13;;;;;;;4.88;60.33;99209.59;6121942;23;20020;-72
2021/03/21 11:01:19;;;;;;;8.25;5.93;;;;;;;4.92;60.30;99209.59;6146782;23;20152;-72
2021/03/21 11:03:50;;;;;;;9.20;5.45;;;;;;;4.98;60.86;99204.53;6147287;23;20005;-72
2021/03/21 11:06:17;;;;;;;9.70;5.50;;;;;;;5.26;59.53;99195.41;6148552;23;20005;-72
2021/03/21 11:08:43;;;;;;;7.43;5.10;;;;;;;5.09;58.87;99187.56;6145978;23;20737;-72
2021/03/21 11:11:33;;;;;;;11.68;7.03;;;;;;;5.34;58.73;99174.09;6149268;23;20005;-73
2021/03/21 11:14:28;;;;;;;8.48;5.53;;;;;;;5.36;59.92;99187.81;6149463;23;20005;-72
2021/03/21 11:16:58;;;;;;;9.13;4.80;;;;;;;5.19;61.05;99179.09;6150504;23;20013;-72
2021/03/21 11:19:25;;;;;;;;;;;;;;;5.69;60.19;99186.38;6146221;23;20008;-72
2021/03/21 11:21:50;;;;;;;8.43;5.80;;;;;;;5.57;60.14;99178.59;6150452;23;19912;-72
2021/03/21 11:24:25;;;;;;;7.38;5.03;;;;;;;5.47;60.97;99179.38;6149442;23;20088;-72
2021/03/21 11:26:51;;;;;;;10.13;5.45;;;;;;;5.26;62.21;99180.84;6148105;23;20484;-72
2021/03/21 11:29:25;;;;;;;8.80;5.32;;;;;;;5.37;61.90;99181.84;6149150;23;20380;-72
2021/03/21 11:31:53;;;;;;;7.93;5.82;;;;;;;5.22;62.09;99179.13;6150495;23;20040;-72
2021/03/21 11:34:19;;;;;;;10.60;5.82;;;;;;;5.02;62.28;99178.03;6150864;23;20100;-72
2021/03/21 11:36:47;;;;;;;10.38;6.40;;;;;;;5.14;61.78;99173.91;6150252;23;20040;-72
2021/03/21 11:39:26;;;;;;;10.20;6.22;;;;;;;4.99;62.40;99170.31;6149932;23;20089;-72
2021/03/21 11:41:51;;;;;;;35.53;15.50;;;;;;;4.84;63.48;99171.03;6150085;23;20037;-72
2021/03/21 11:44:27;;;;;;;7.50;6.30;;;;;;;4.79;63.47;99165.84;6150502;23;20005;-72
2021/03/21 11:46:56;;;;;;;12.02;6.28;;;;;;;5.11;63.43;99157.59;6150577;23;20080;-72
2021/03/21 11:49:25;;;;;;;8.40;5.63;;;;;;;5.15;61.78;99161.94;6150193;23;20428;-72
2021/03/21 11:51:59;;;;;;;11.57;6.07;;;;;;;5.07;61.80;99160.97;6149700;23;20014;-73
2021/03/21 11:54:28;;;;;;;9.18;6.30;;;;;;;5.13;61.63;99161.06;6150332;23;20005;-72
2021/03/21 11:57:03;;;;;;;15.07;6.30;;;;;;;5.37;61.25;99163.84;6150741;23;20084;-72
2021/03/21 11:59:36;;;;;;;11.93;6.55;;;;;;;5.46;61.43;99165.63;6150022;23;20609;-74
2021/03/21 12:02:02;;;;;;;10.00;6.53;;;;;;;5.51;60.17;99165.66;6150082;23;20432;-72
2021/03/21 12:04:41;;;;;;;40.45;19.13;;;;;;;5.66;60.11;99158.97;6150388;23;20009;-73
2021/03/21 12:07:22;;;;;;;13.32;7.22;;;;;;;5.80;59.02;99153.94;6150404;23;20005;-74
2021/03/21 12:09:48;;;;;;;14.13;7.00;;;;;;;5.82;59.49;99156.50;6150000;23;20010;-73
2021/03/21 12:12:37;;;;;;;9.57;6.30;;;;;;;5.73;59.63;99162.44;6150039;23;20463;-74
2021/03/21 12:15:12;;;;;;;12.65;6.53;;;;;;;5.88;59.47;99159.09;6150357;23;20006;-73
2021/03/21 12:17:39;;;;;;;11.55;6.63;;;;;;;5.78;59.48;99165.03;6149899;23;20033;-74
2021/03/21 12:20:31;;;;;;;9.85;6.10;;;;;;;5.58;58.26;99152.88;6150302;23;20013;-73
2021/03/21 12:22:58;;;;;;;6.78;5.43;;;;;;;5.68;58.68;99153.81;6149941;23;20318;-73
2021/03/21 12:25:29;;;;;;;8.80;5.68;;;;;;;5.65;58.82;99149.50;6150142;23;20038;-73
2021/03/21 12:28:06;;;;;;;16.60;9.38;;;;;;;5.63;59.37;99158.94;6150139;23;20076;-73
2021/03/21 12:30:45;;;;;;;11.32;6.00;;;;;;;5.36;62.63;99144.13;6149970;23;20009;-73
2021/03/21 12:33:14;;;;;;;22.37;13.17;;;;;;;5.61;64.56;99141.78;6149927;23;20013;-73
2021/03/21 12:35:41;;;;;;;7.57;5.75;;;;;;;5.68;62.71;99133.25;6150287;23;20084;-73
2021/03/21 12:38:25;;;;;;;9.57;6.82;;;;;;;5.63;65.71;99140.94;6149501;23;20006;-73
2021/03/21 12:40:51;;;;;;;9.15;5.30;;;;;;;5.76;63.92;99135.91;6149520;23;20009;-73
2021/03/21 12:43:28;;;;;;;10.23;5.95;;;;;;;5.47;63.79;99127.97;6149921;23;20063;-74
2021/03/21 12:46:01;;;;;;;10.93;6.40;;;;;;;5.70;64.51;99116.13;6150172;23;20001;-73
2021/03/21 12:48:27;;;;;;;7.30;4.65;;;;;;;5.88;64.16;99116.25;6149948;23;20001;-73
2021/03/21 12:50:53;;;;;;;8.25;5.00;;;;;;;5.97;65.08;99112.06;6149285;23;20009;-74
2021/03/21 12:53:25;;;;;;;7.72;5.57;;;;;;;5.85;66.22;99111.09;6149768;23;20077;-73
2021/03/21 12:55:52;;;;;;;8.85;6.55;;;;;;;5.83;65.41;99107.66;6150167;23;20013;-74
2021/03/21 12:58:18;;;;;;;10.23;5.70;;;;;;;5.76;64.78;99100.75;6149707;23;20006;-74
2021/03/21 13:00:45;;;;;;;9.65;6.28;;;;;;;5.81;65.07;99104.22;6149644;23;20017;-73
2021/03/21 13:03:21;;;;;;;12.32;6.85;;;;;;;5.95;64.78;99095.72;6149751;23;20075;-73
2021/03/21 13:05:46;;;;;;;8.43;5.32;;;;;;;6.02;64.36;99087.22;6149883;23;20017;-73
2021/03/21 13:08:14;;;;;;;7.10;5.45;;;;;;;5.96;64.12;99089.78;6149780;23;20006;-73
2021/03/21 13:10:40;;;;;;;8.45;5.57;;;;;;;5.99;64.06;99087.19;6149682;23;20017;-73
2021/03/21 13:13:07;;;;;;;9.43;6.55;;;;;;;6.07;63.49;99073.53;6149611;23;20013;-73
2021/03/21 13:15:33;;;;;;;25.58;12.40;;;;;;;6.06;64.13;99078.66;6149449;23;20005;-73
2021/03/21 13:17:58;;;;;;;11.18;8.02;;;;;;;5.87;65.58;99081.09;6149466;23;20005;-73
2021/03/21 13:20:24;;;;;;;9.65;6.13;;;;;;;5.84;65.82;99075.94;6149661;23;20091;-73
2021/03/21 13:22:50;;;;;;;7.40;5.47;;;;;;;5.69;66.87;99078.41;6149653;23;20084;-73
2021/03/21 13:25:23;;;;;;;10.45;6.95;;;;;;;5.64;67.59;99074.97;6124021;23;20005;-73
2021/03/21 13:27:54;;;;;;;10.50;6.47;;;;;;;5.48;68.24;99068.00;6148973;23;20013;-74
2021/03/21 13:30:23;;;;;;;13.48;8.73;;;;;;;5.34;69.02;99066.19;6149608;23;20013;-73
2021/03/21 13:32:49;;;;;;;9.02;7.13;;;;;;;5.40;69.88;99068.78;6149453;23;20348;-73
2021/03/21 13:35:15;;;;;;;10.00;6.93;;;;;;;5.49;69.22;99064.59;6151631;23;20006;-74
2021/03/21 13:37:40;;;;;;;11.75;7.13;;;;;;;5.50;69.95;99064.59;6151474;23;20010;-73
2021/03/21 13:40:07;;;;;;;32.33;17.13;;;;;;;5.47;70.20;99062.00;6151532;23;20029;-74
2021/03/21 13:42:33;;;;;;;12.10;7.85;;;;;;;5.32;71.25;99074.75;6151674;23;20006;-73
2021/03/21 13:45:00;;;;;;;15.23;9.80;;;;;;;5.36;70.75;99066.19;6151205;23;20217;-73
2021/03/21 13:47:26;;;;;;;16.38;10.57;;;;;;;5.32;71.14;99062.75;6150907;23;20368;-73
2021/03/21 13:49:51;;;;;;;19.73;11.85;;;;;;;5.57;71.04;99057.78;6150901;23;20012;-73
2021/03/21 13:52:17;;;;;;;11.30;6.97;;;;;;;5.72;69.97;99057.88;6150962;23;20005;-73
2021/03/21 13:54:42;;;;;;;12.50;8.05;;;;;;;5.47;70.29;99050.88;6151471;23;20005;-73
2021/03/21 13:57:08;;;;;;;11.80;7.43;;;;;;;5.54;70.15;99052.63;6151826;23;20433;-73
2021/03/21 13:59:34;;;;;;;12.70;7.28;;;;;;;5.80;69.24;99034.78;6151030;23;20341;-73
2021/03/21 14:01:59;;;;;;;14.38;8.60;;;;;;;5.95;68.95;99034.00;6150860;23;20059;-73
2021/03/21 14:04:24;;;;;;;10.57;6.55;;;;;;;6.15;67.84;99050.41;6151452;23;20037;-74
2021/03/21 14:06:50;;;;;;;7.97;6.18;;;;;;;5.95;68.52;99046.88;6151293;23;20016;-73
2021/03/21 14:09:17;;;;;;;44.42;20.40;;;;;;;5.95;68.82;99045.19;6151514;23;20009;-73
2021/03/21 14:11:42;;;;;;;13.93;9.00;;;;;;;6.09;68.74;99037.50;6150831;23;20005;-73
2021/03/21 14:14:08;;;;;;;8.60;5.85;;;;;;;6.12;67.96;99043.53;6152284;23;20099;-70
2021/03/21 14:16:33;;;;;;;13.43;7.93;;;;;;;6.03;67.91;99047.78;6151137;23;20005;-69
2021/03/21 14:18:58;;;;;;;7.57;6.18;;;;;;;6.29;67.39;99035.91;6124214;23;20009;-70
2021/03/21 14:21:24;;;;;;;7.75;6.18;;;;;;;6.31;67.25;99033.31;6150281;23;20045;-70
2021/03/21 14:23:49;;;;;;;9.75;6.15;;;;;;;6.56;66.87;99029.94;6150512;23;20020;-70
2021/03/21 14:26:14;;;;;;;11.32;7.10;;;;;;;6.21;67.98;99027.28;6151415;23;20008;-70
2021/03/21 14:28:40;;;;;;;11.40;7.55;;;;;;;6.48;66.96;99025.63;6150406;23;20510;-70
2021/03/21 14:31:07;;;;;;;8.98;6.15;;;;;;;6.39;67.34;99027.34;6150718;23;20013;-70
2021/03/21 14:33:34;;;;;;;11.52;7.43;;;;;;;6.62;67.04;99029.09;6151683;23;20037;-70
2021/03/21 14:36:00;;;;;;;7.30;5.97;;;;;;;6.42;66.89;99019.59;6151066;23;20009;-71
2021/03/21 14:38:26;;;;;;;8.10;6.32;;;;;;;6.25;67.70;99029.00;6151398;23;20005;-71
2021/03/21 14:40:53;;;;;;;8.85;6.72;;;;;;;6.12;68.17;99022.09;6125306;23;20020;-71
2021/03/21 14:43:20;;;;;;;8.23;6.18;;;;;;;6.44;67.44;99020.50;6125231;23;20056;-71
2021/03/21 14:45:46;;;;;;;9.45;6.35;;;;;;;6.32;67.49;99025.59;6150760;23;20096;-71
2021/03/21 14:48:11;;;;;;;9.80;6.03;;;;;;;6.23;67.96;99025.56;6151345;23;20036;-70
2021/03/21 14:50:37;;;;;;;7.60;5.85;;;;;;;6.14;68.26;99025.53;6151373;23;20092;-70
2021/03/21 14:53:03;;;;;;;9.23;6.22;;;;;;;6.08;68.61;99030.66;6150996;23;20333;-71
2021/03/21 14:55:31;;;;;;;7.65;5.72;;;;;;;6.24;67.71;99024.72;6150746;23;20008;-73
2021/03/21 14:57:57;;;;;;;9.63;6.07;;;;;;;6.43;67.46;99013.63;6151088;23;20039;-72
2021/03/21 15:00:33;;;;;;;14.00;7.75;;;;;;;6.38;67.69;99014.44;6150824;23;20013;-72
2021/03/21 15:03:01;;;;;;;10.48;7.18;;;;;;;6.48;67.17;99010.19;6151126;23;20006;-73
2021/03/21 15:05:27;;;;;;;11.40;6.63;;;;;;;6.34;67.17;99011.03;6151318;23;20012;-75
2021/03/21 15:07:52;;;;;;;10.25;6.50;;;;;;;6.24;68.22;99009.28;6150896;23;20068;-67
2021/03/21 15:10:19;;;;;;;6.90;6.13;;;;;;;6.38;67.59;99009.31;6151356;23;20009;-73
2021/03/21 15:12:45;;;;;;;8.25;6.63;;;;;;;6.18;68.27;98996.38;6150646;23;20075;-74
2021/03/21 15:15:32;;;;;;;9.32;7.10;;;;;;;6.38;67.96;98994.75;6150828;23;20009;-70
2021/03/21 15:17:58;;;;;;;9.60;6.95;;;;;;;6.38;68.39;98997.31;6150785;23;20056;-68
2021/03/21 15:20:26;;;;;;;11.02;6.90;;;;;;;6.39;68.00;99001.59;6150888;23;20013;-68
2021/03/21 15:22:53;;;;;;;10.95;7.65;;;;;;;6.35;68.15;98994.72;6150610;23;20009;-70
2021/03/21 15:25:19;;;;;;;14.07;7.70;;;;;;;6.36;67.97;98996.44;6151084;23;20009;-73
2021/03/21 15:27:45;;;;;;;11.07;7.70;;;;;;;6.49;68.17;98996.47;6151059;23;20041;-75
2021/03/21 15:30:11;;;;;;;14.18;7.85;;;;;;;6.60;67.61;98989.63;6150787;23;20012;-71
2021/03/21 15:32:36;;;;;;;8.85;6.85;;;;;;;6.61;67.55;98996.50;6150803;23;20340;-71
2021/03/21 15:35:04;;;;;;;9.32;6.82;;;;;;;6.47;67.67;98988.75;6150798;23;20001;-67
2021/03/21 15:37:29;;;;;;;8.88;7.43;;;;;;;6.42;68.03;98996.44;6150434;23;20011;-67
2021/03/21 15:39:54;;;;;;;9.43;7.40;;;;;;;6.40;68.48;98990.44;6124658;23;20013;-67
2021/03/21 15:42:20;;;;;;;9.85;7.22;;;;;;;6.47;68.02;98988.75;6150428;23;20088;-67
2021/03/21 15:44:45;;;;;;;10.43;8.13;;;;;;;6.40;68.35;98993.03;6150019;23;20005;-67
2021/03/21 15:47:11;;;;;;;10.00;8.00;;;;;;;6.32;68.51;98997.28;6150603;23;20009;-67
2021/03/21 15:49:36;;;;;;;15.45;9.98;;;;;;;6.37;68.82;98993.00;6149879;23;20009;-67
2021/03/21 15:52:03;;;;;;;12.65;8.20;;;;;;;6.22;68.84;98985.25;6150269;23;20111;-67
2021/03/21 15:54:28;;;;;;;14.30;9.20;;;;;;;6.33;68.68;98986.13;6150846;23;20333;-67
2021/03/21 15:56:53;;;;;;;14.40;8.45;;;;;;;6.48;68.26;98984.44;6150315;23;20012;-67
2021/03/21 15:59:19;;;;;;;12.38;8.45;;;;;;;6.46;68.30;98984.47;6150400;23;20076;-67
2021/03/21 16:01:44;;;;;;;14.70;10.88;;;;;;;6.40;68.38;98977.59;6150334;23;20016;-67
2021/03/21 16:04:09;;;;;;;12.88;8.25;;;;;;;6.56;67.97;98977.59;6150186;23;20013;-68
2021/03/21 16:06:35;;;;;;;15.73;9.75;;;;;;;6.49;68.66;98978.47;6124328;23;20383;-67
2021/03/21 16:09:00;;;;;;;13.27;8.88;;;;;;;6.73;67.85;98973.34;6124144;23;20002;-67
2021/03/21 16:11:26;;;;;;;11.73;7.93;;;;;;;6.60;67.50;98974.19;6124063;23;20009;-67
2021/03/21 16:13:51;;;;;;;8.98;7.70;;;;;;;6.62;67.86;98967.31;6147111;23;20093;-70
2021/03/21 16:16:16;;;;;;;12.68;8.05;;;;;;;6.60;67.77;98975.03;6144206;23;20040;-70
2021/03/21 16:18:42;;;;;;;9.75;7.57;;;;;;;6.53;67.79;98968.19;6142518;23;20029;-70
2021/03/21 16:21:07;;;;;;;10.95;7.68;;;;;;;6.52;67.79;98965.59;6113363;23;20005;-70
2021/03/21 16:23:32;;;;;;;11.52;7.90;;;;;;;6.35;68.48;98971.56;6137922;23;20005;-68
2021/03/21 16:25:58;;;;;;;13.88;8.60;;;;;;;6.33;68.71;98969.84;6138312;23;20009;-72
2021/03/21 16:28:24;;;;;;;10.82;8.13;;;;;;;6.21;68.60;98975.81;6133497;23;20059;-68
2021/03/21 16:30:51;;;;;;;10.70;8.45;;;;;;;6.12;69.20;98971.50;6132148;23;20009;-68
2021/03/21 16:33:24;;;;;;;13.63;8.40;;;;;;;6.23;69.09;98974.09;6132719;23;20480;-68
2021/03/21 16:35:50;;;;;;;10.27;8.07;;;;;;;6.27;69.13;98974.97;6132533;23;20005;-68
2021/03/21 16:38:16;;;;;;;11.75;8.27;;;;;;;6.32;69.29;98974.13;6133294;23;20037;-68
2021/03/21 16:40:56;;;;;;;9.35;7.78;;;;;;;6.18;68.92;98968.09;6132299;23;20001;-68
2021/03/21 16:43:24;;;;;;;;;;;;;;;6.18;69.63;98975.81;6134405;23;20025;-68
2021/03/21 16:45:53;;;;;;;12.52;8.55;;;;;;;6.26;69.28;98974.13;6141129;23;19947;-68
2021/03/21 16:48:19;;;;;;;12.48;7.63;;;;;;;6.18;69.64;98970.66;6115381;23;20104;-68
2021/03/21 16:50:44;;;;;;;9.82;7.93;;;;;;;6.13;69.85;98977.50;6146860;23;20036;-68
2021/03/21 16:53:11;;;;;;;16.35;8.38;;;;;;;6.05;70.30;98980.06;6146099;23;20017;-68
2021/03/21 16:55:37;;;;;;;29.63;16.75;;;;;;;6.13;69.93;98977.50;6146836;23;20318;-68
2021/03/21 16:58:03;;;;;;;12.75;8.55;;;;;;;6.10;69.71;98975.81;6149811;23;20060;-68
2021/03/21 17:00:29;;;;;;;10.77;8.45;;;;;;;6.09;70.44;98978.34;6150101;23;20005;-69
2021/03/21 17:02:55;;;;;;;13.43;8.60;;;;;;;6.13;70.45;98973.22;6149786;23;20080;-68
2021/03/21 17:05:23;;;;;;;10.43;8.07;;;;;;;6.09;70.33;98978.34;6149993;23;20057;-69
2021/03/21 17:07:49;;;;;;;14.85;8.75;;;;;;;6.20;70.20;98984.41;6150074;23;20032;-73
2021/03/21 17:10:21;;;;;;;10.82;8.38;;;;;;;6.10;70.58;98982.66;6151895;23;20002;-68
2021/03/21 17:12:46;;;;;;;14.75;8.63;;;;;;;6.02;70.33;98980.06;6151992;23;20488;-69
2021/03/21 17:15:13;;;;;;;17.98;8.07;;;;;;;6.07;70.35;98982.63;6151715;23;20012;-71
2021/03/21 17:17:39;;;;;;;11.77;8.15;;;;;;;6.11;70.42;98985.22;6151202;23;20016;-68
2021/03/21 17:20:05;;;;;;;16.35;10.52;;;;;;;6.00;70.67;98981.78;6151743;23;20047;-68
2021/03/21 17:22:31;;;;;;;16.13;9.63;;;;;;;5.99;70.73;98987.75;6151815;23;20013;-69
2021/03/21 17:24:57;;;;;;;13.65;8.35;;;;;;;5.90;71.04;98991.13;6151866;23;20016;-69
2021/03/21 17:27:23;;;;;;;12.02;9.07;;;;;;;5.96;70.81;98984.31;6152181;23;20377;-68
2021/03/21 17:29:48;;;;;;;14.65;9.57;;;;;;;5.91;70.76;98992.88;6151359;23;20021;-69
2021/03/21 17:32:14;;;;;;;13.80;9.32;;;;;;;5.78;70.49;98996.22;6151730;23;20027;-69
2021/03/21 17:34:41;;;;;;;15.40;10.43;;;;;;;5.80;70.74;98997.09;6125686;23;20018;-69
2021/03/21 17:37:08;;;;;;;15.00;9.55;;;;;;;5.79;70.73;99003.06;6152010;23;20005;-69
2021/03/21 17:39:34;;;;;;;15.52;9.90;;;;;;;5.82;70.89;98997.09;6151718;23;20009;-69
2021/03/21 17:41:59;;;;;;;14.23;9.73;;;;;;;5.76;71.05;98995.34;6151096;23;20017;-69
2021/03/21 17:44:25;;;;;;;15.93;10.55;;;;;;;5.76;71.06;98992.78;6151757;23;20009;-69
2021/03/21 17:46:50;;;;;;;16.77;10.55;;;;;;;5.63;71.80;98996.13;6149227;23;20010;-69
2021/03/21 17:49:15;;;;;;;17.98;10.95;;;;;;;5.54;72.10;99011.50;6143672;23;20028;-69
2021/03/21 17:51:41;;;;;;;16.48;9.75;;;;;;;5.53;72.38;99004.66;6141126;23;20005;-69
2021/03/21 17:54:06;;;;;;;17.45;10.73;;;;;;;5.45;72.76;99004.59;6143508;23;20029;-69
2021/03/21 17:56:31;;;;;;;17.55;10.35;;;;;;;5.56;72.08;99012.34;6142009;23;20012;-69
2021/03/21 17:58:58;;;;;;;13.10;10.05;;;;;;;5.47;72.36;99008.03;6139798;23;20005;-69
2021/03/21 18:01:25;;;;;;;15.15;9.77;;;;;;;5.65;72.30;99007.28;6136092;23;20511;-69
2021/03/21 18:03:52;;;;;;;15.52;10.30;;;;;;;5.65;71.95;99009.84;6134669;23;20033;-69
2021/03/21 18:06:17;;;;;;;14.50;10.68;;;;;;;5.60;71.85;99014.09;6134440;23;20005;-69
2021/03/21 18:08:43;;;;;;;17.00;10.68;;;;;;;5.68;71.96;99015.00;6133343;23;20447;-69
2021/03/21 18:11:10;;;;;;;28.83;13.27;;;;;;;5.49;72.38;99028.59;6134341;23;20361;-69
2021/03/21 18:13:36;;;;;;;39.95;16.60;;;;;;;5.53;72.84;99035.50;6126342;23;20013;-69
2021/03/21 18:16:02;;;;;;;27.42;13.05;;;;;;;5.72;72.15;99024.47;6124714;23;20001;-68
2021/03/21 18:18:28;;;;;;;17.08;11.20;;;;;;;5.55;72.37;99034.63;6126071;23;20006;-68
2021/03/21 18:20:54;;;;;;;12.82;10.50;;;;;;;5.53;72.40;99025.22;6119329;23;20432;-68
2021/03/21 18:23:20;;;;;;;16.42;10.43;;;;;;;5.56;72.85;99030.34;6091747;23;20031;-70
2021/03/21 18:25:46;;;;;;;17.92;10.30;;;;;;;5.56;72.36;99045.78;6119098;23;20005;-70
2021/03/21 18:28:12;;;;;;;18.30;11.50;;;;;;;5.59;72.40;99035.53;6120302;23;19997;-70
2021/03/21 18:30:39;;;;;;;17.98;11.07;;;;;;;5.56;72.45;99043.19;6133548;23;20002;-70
2021/03/21 18:33:08;;;;;;;15.48;10.43;;;;;;;5.51;72.03;99038.06;6128873;23;20032;-70
2021/03/21 18:35:33;;;;;;;15.77;10.10;;;;;;;5.40;72.32;99034.53;6115937;23;20081;-70
2021/03/21 18:37:59;;;;;;;19.90;11.38;;;;;;;5.47;72.55;99043.16;6116577;23;20033;-70
2021/03/21 18:40:27;;;;;;;20.63;11.52;;;;;;;5.45;72.61;99038.00;6113003;23;20013;-68
2021/03/21 18:42:52;;;;;;;18.98;11.73;;;;;;;5.51;72.30;99040.63;6118778;23;20432;-69
2021/03/21 18:45:24;;;;;;;17.38;11.05;;;;;;;5.47;72.29;99045.75;6099756;23;20020;-69
2021/03/21 18:47:50;;;;;;;16.40;10.82;;;;;;;5.40;72.12;99052.53;6119865;23;20014;-69
2021/03/21 18:50:17;;;;;;;17.70;12.23;;;;;;;5.46;72.26;99054.28;6115116;23;20009;-69